sensor_id;sensor_type;location;lat;lon;timestamp;P1;durP1;ratioP1;P2;durP2;ratioP2
75456;SDS011;64036;48.266;14.192;2023-08-21T00:00:05;9.80;;;7.70;;
75456;SDS011;64036;48.266;14.192;2023-08-21T00:02:32;10.40;;;8.10;;
75456;SDS011;64036;48.266;14.192;2023-08-21T00:04:58;9.70;;;7.60;;
75456;SDS011;64036;48.266;14.192;2023-08-21T00:07:23;10.00;;;8.40;;
75456;SDS011;64036;48.266;14.192;2023-08-21T00:09:49;9.00;;;7.40;;
75456;SDS011;64036;48.266;14.192;2023-08-21T00:12:15;10.10;;;8.00;;
75456;SDS011;64036;48.266;14.192;2023-08-21T00:14:41;10.50;;;7.80;;
75456;SDS011;64036;48.266;14.192;2023-08-21T00:17:07;9.50;;;7.80;;
75456;SDS011;64036;48.266;14.192;2023-08-21T00:19:33;11.30;;;8.00;;
75456;SDS011;64036;48.266;14.192;2023-08-21T00:21:59;12.00;;;8.40;;
75456;SDS011;64036;48.266;14.192;2023-08-21T00:24:25;8.60;;;7.40;;
75456;SDS011;64036;48.266;14.192;2023-08-21T00:26:51;11.30;;;8.10;;
75456;SDS011;64036;48.266;14.192;2023-08-21T00:29:17;12.00;;;7.80;;
75456;SDS011;64036;48.266;14.192;2023-08-21T00:31:42;8.30;;;6.80;;
75456;SDS011;64036;48.266;14.192;2023-08-21T00:34:08;9.10;;;7.20;;
75456;SDS011;64036;48.266;14.192;2023-08-21T00:36:34;10.30;;;7.50;;
75456;SDS011;64036;48.266;14.192;2023-08-21T00:39:01;9.40;;;8.10;;
75456;SDS011;64036;48.266;14.192;2023-08-21T00:41:26;9.60;;;7.60;;
75456;SDS011;64036;48.266;14.192;2023-08-21T00:43:52;8.60;;;7.20;;
75456;SDS011;64036;48.266;14.192;2023-08-21T00:46:18;9.20;;;7.20;;
75456;SDS011;64036;48.266;14.192;2023-08-21T00:48:44;10.30;;;8.80;;
75456;SDS011;64036;48.266;14.192;2023-08-21T00:51:10;12.30;;;8.50;;
75456;SDS011;64036;48.266;14.192;2023-08-21T00:53:37;9.50;;;8.50;;
75456;SDS011;64036;48.266;14.192;2023-08-21T00:56:03;10.50;;;8.50;;
75456;SDS011;64036;48.266;14.192;2023-08-21T00:58:29;11.00;;;8.00;;
75456;SDS011;64036;48.266;14.192;2023-08-21T01:00:55;9.70;;;7.90;;
75456;SDS011;64036;48.266;14.192;2023-08-21T01:03:21;10.10;;;8.60;;
75456;SDS011;64036;48.266;14.192;2023-08-21T01:05:47;9.40;;;8.20;;
75456;SDS011;64036;48.266;14.192;2023-08-21T01:11:21;13.60;;;9.40;;
75456;SDS011;64036;48.266;14.192;2023-08-21T01:16:37;12.80;;;9.10;;
75456;SDS011;64036;48.266;14.192;2023-08-21T01:19:04;11.90;;;9.10;;
75456;SDS011;64036;48.266;14.192;2023-08-21T01:21:37;10.90;;;8.90;;
75456;SDS011;64036;48.266;14.192;2023-08-21T01:24:03;12.10;;;8.70;;
75456;SDS011;64036;48.266;14.192;2023-08-21T01:26:29;10.60;;;8.70;;
75456;SDS011;64036;48.266;14.192;2023-08-21T01:28:55;12.50;;;9.30;;
75456;SDS011;64036;48.266;14.192;2023-08-21T01:31:30;11.20;;;8.90;;
75456;SDS011;64036;48.266;14.192;2023-08-21T01:33:59;11.50;;;8.70;;
75456;SDS011;64036;48.266;14.192;2023-08-21T01:36:28;10.40;;;9.30;;
75456;SDS011;64036;48.266;14.192;2023-08-21T01:38:54;9.10;;;7.90;;
75456;SDS011;64036;48.266;14.192;2023-08-21T01:41:23;9.70;;;7.90;;
75456;SDS011;64036;48.266;14.192;2023-08-21T01:43:50;10.60;;;9.30;;
75456;SDS011;64036;48.266;14.192;2023-08-21T01:46:15;10.10;;;9.00;;
75456;SDS011;64036;48.266;14.192;2023-08-21T01:48:41;10.90;;;9.00;;
75456;SDS011;64036;48.266;14.192;2023-08-21T01:51:07;10.70;;;9.00;;
75456;SDS011;64036;48.266;14.192;2023-08-21T01:53:33;10.90;;;8.60;;
75456;SDS011;64036;48.266;14.192;2023-08-21T01:55:58;10.50;;;9.30;;
75456;SDS011;64036;48.266;14.192;2023-08-21T01:58:24;20.20;;;8.90;;
75456;SDS011;64036;48.266;14.192;2023-08-21T02:00:49;10.00;;;8.90;;
75456;SDS011;64036;48.266;14.192;2023-08-21T02:03:15;11.30;;;9.10;;
75456;SDS011;64036;48.266;14.192;2023-08-21T02:05:41;13.20;;;9.10;;
75456;SDS011;64036;48.266;14.192;2023-08-21T02:08:11;9.90;;;8.80;;
75456;SDS011;64036;48.266;14.192;2023-08-21T02:10:38;9.20;;;8.20;;
75456;SDS011;64036;48.266;14.192;2023-08-21T02:13:03;10.50;;;9.10;;
75456;SDS011;64036;48.266;14.192;2023-08-21T02:15:31;10.70;;;9.10;;
75456;SDS011;64036;48.266;14.192;2023-08-21T02:17:56;11.20;;;8.30;;
75456;SDS011;64036;48.266;14.192;2023-08-21T02:20:22;11.60;;;8.80;;
75456;SDS011;64036;48.266;14.192;2023-08-21T02:22:48;11.00;;;8.50;;
75456;SDS011;64036;48.266;14.192;2023-08-21T02:25:14;10.70;;;8.50;;
75456;SDS011;64036;48.266;14.192;2023-08-21T02:27:39;11.70;;;8.80;;
75456;SDS011;64036;48.266;14.192;2023-08-21T02:30:05;9.90;;;8.20;;
75456;SDS011;64036;48.266;14.192;2023-08-21T02:32:32;9.80;;;8.00;;
75456;SDS011;64036;48.266;14.192;2023-08-21T02:34:58;12.00;;;8.40;;
75456;SDS011;64036;48.266;14.192;2023-08-21T02:37:23;11.10;;;9.20;;
75456;SDS011;64036;48.266;14.192;2023-08-21T02:39:49;10.90;;;9.30;;
75456;SDS011;64036;48.266;14.192;2023-08-21T02:42:15;13.10;;;9.60;;
75456;SDS011;64036;48.266;14.192;2023-08-21T02:44:40;11.60;;;8.80;;
75456;SDS011;64036;48.266;14.192;2023-08-21T02:47:06;11.10;;;8.70;;
75456;SDS011;64036;48.266;14.192;2023-08-21T02:49:31;14.20;;;8.80;;
75456;SDS011;64036;48.266;14.192;2023-08-21T02:51:57;13.00;;;9.10;;
75456;SDS011;64036;48.266;14.192;2023-08-21T02:54:23;11.00;;;9.20;;
75456;SDS011;64036;48.266;14.192;2023-08-21T02:56:48;12.80;;;9.80;;
75456;SDS011;64036;48.266;14.192;2023-08-21T02:59:14;11.20;;;9.40;;
75456;SDS011;64036;48.266;14.192;2023-08-21T03:01:40;15.00;;;9.40;;
75456;SDS011;64036;48.266;14.192;2023-08-21T03:04:05;13.00;;;9.70;;
75456;SDS011;64036;48.266;14.192;2023-08-21T03:06:31;12.60;;;10.60;;
75456;SDS011;64036;48.266;14.192;2023-08-21T03:08:57;13.10;;;10.60;;
75456;SDS011;64036;48.266;14.192;2023-08-21T03:11:22;12.20;;;9.90;;
75456;SDS011;64036;48.266;14.192;2023-08-21T03:13:48;10.90;;;9.80;;
75456;SDS011;64036;48.266;14.192;2023-08-21T03:16:13;15.30;;;10.80;;
75456;SDS011;64036;48.266;14.192;2023-08-21T03:18:59;14.10;;;10.20;;
75456;SDS011;64036;48.266;14.192;2023-08-21T03:21:26;15.50;;;10.50;;
75456;SDS011;64036;48.266;14.192;2023-08-21T03:23:56;11.60;;;9.80;;
75456;SDS011;64036;48.266;14.192;2023-08-21T03:26:23;13.80;;;10.00;;
75456;SDS011;64036;48.266;14.192;2023-08-21T03:28:49;11.60;;;9.20;;
75456;SDS011;64036;48.266;14.192;2023-08-21T03:31:15;12.30;;;10.30;;
75456;SDS011;64036;48.266;14.192;2023-08-21T03:33:41;11.90;;;9.60;;
75456;SDS011;64036;48.266;14.192;2023-08-21T03:36:06;12.60;;;9.50;;
75456;SDS011;64036;48.266;14.192;2023-08-21T03:38:32;13.50;;;9.00;;
75456;SDS011;64036;48.266;14.192;2023-08-21T03:40:59;11.00;;;8.40;;
75456;SDS011;64036;48.266;14.192;2023-08-21T03:43:25;11.10;;;9.30;;
75456;SDS011;64036;48.266;14.192;2023-08-21T03:45:51;13.10;;;9.20;;
75456;SDS011;64036;48.266;14.192;2023-08-21T03:48:16;11.90;;;9.70;;
75456;SDS011;64036;48.266;14.192;2023-08-21T03:50:42;15.10;;;9.80;;
75456;SDS011;64036;48.266;14.192;2023-08-21T03:53:08;13.90;;;9.90;;
75456;SDS011;64036;48.266;14.192;2023-08-21T03:55:33;12.40;;;9.80;;
75456;SDS011;64036;48.266;14.192;2023-08-21T03:58:00;13.30;;;10.50;;
75456;SDS011;64036;48.266;14.192;2023-08-21T04:00:26;11.50;;;10.30;;
75456;SDS011;64036;48.266;14.192;2023-08-21T04:02:51;13.10;;;10.60;;
75456;SDS011;64036;48.266;14.192;2023-08-21T04:05:17;14.00;;;11.00;;
75456;SDS011;64036;48.266;14.192;2023-08-21T04:07:43;13.90;;;10.90;;
75456;SDS011;64036;48.266;14.192;2023-08-21T04:10:09;13.80;;;11.70;;
75456;SDS011;64036;48.266;14.192;2023-08-21T04:12:34;13.60;;;10.70;;
75456;SDS011;64036;48.266;14.192;2023-08-21T04:15:00;16.30;;;11.40;;
75456;SDS011;64036;48.266;14.192;2023-08-21T04:17:25;14.10;;;10.70;;
75456;SDS011;64036;48.266;14.192;2023-08-21T04:19:51;13.20;;;10.40;;
75456;SDS011;64036;48.266;14.192;2023-08-21T04:22:17;13.20;;;10.30;;
75456;SDS011;64036;48.266;14.192;2023-08-21T04:24:43;12.40;;;10.30;;
75456;SDS011;64036;48.266;14.192;2023-08-21T04:27:08;13.20;;;11.00;;
75456;SDS011;64036;48.266;14.192;2023-08-21T04:29:38;11.90;;;10.10;;
75456;SDS011;64036;48.266;14.192;2023-08-21T04:32:05;12.30;;;10.60;;
75456;SDS011;64036;48.266;14.192;2023-08-21T04:34:35;12.30;;;10.00;;
75456;SDS011;64036;48.266;14.192;2023-08-21T04:37:00;11.40;;;9.60;;
75456;SDS011;64036;48.266;14.192;2023-08-21T04:39:26;14.40;;;10.50;;
75456;SDS011;64036;48.266;14.192;2023-08-21T04:41:52;12.80;;;10.50;;
75456;SDS011;64036;48.266;14.192;2023-08-21T04:44:18;13.00;;;10.20;;
75456;SDS011;64036;48.266;14.192;2023-08-21T04:46:48;13.60;;;10.60;;
75456;SDS011;64036;48.266;14.192;2023-08-21T04:49:15;14.50;;;10.10;;
75456;SDS011;64036;48.266;14.192;2023-08-21T04:51:41;13.90;;;10.30;;
75456;SDS011;64036;48.266;14.192;2023-08-21T04:54:07;12.80;;;11.20;;
75456;SDS011;64036;48.266;14.192;2023-08-21T04:56:33;11.40;;;10.10;;
75456;SDS011;64036;48.266;14.192;2023-08-21T04:58:59;15.40;;;10.80;;
75456;SDS011;64036;48.266;14.192;2023-08-21T05:01:24;13.60;;;9.40;;
75456;SDS011;64036;48.266;14.192;2023-08-21T05:03:51;11.80;;;9.70;;
75456;SDS011;64036;48.266;14.192;2023-08-21T05:06:16;10.50;;;9.10;;
75456;SDS011;64036;48.266;14.192;2023-08-21T05:08:42;10.30;;;9.00;;
75456;SDS011;64036;48.266;14.192;2023-08-21T05:11:08;10.90;;;8.60;;
75456;SDS011;64036;48.266;14.192;2023-08-21T05:13:33;10.80;;;8.80;;
75456;SDS011;64036;48.266;14.192;2023-08-21T05:15:59;12.10;;;8.60;;
75456;SDS011;64036;48.266;14.192;2023-08-21T05:18:25;9.90;;;8.20;;
75456;SDS011;64036;48.266;14.192;2023-08-21T05:20:55;10.50;;;8.30;;
75456;SDS011;64036;48.266;14.192;2023-08-21T05:23:21;10.20;;;8.20;;
75456;SDS011;64036;48.266;14.192;2023-08-21T05:25:48;8.30;;;7.40;;
75456;SDS011;64036;48.266;14.192;2023-08-21T05:28:14;9.10;;;6.80;;
75456;SDS011;64036;48.266;14.192;2023-08-21T05:30:40;10.60;;;6.90;;
75456;SDS011;64036;48.266;14.192;2023-08-21T05:33:06;9.50;;;6.40;;
75456;SDS011;64036;48.266;14.192;2023-08-21T05:35:38;9.30;;;6.70;;
75456;SDS011;64036;48.266;14.192;2023-08-21T05:38:03;9.50;;;6.10;;
75456;SDS011;64036;48.266;14.192;2023-08-21T05:40:30;8.20;;;6.60;;
75456;SDS011;64036;48.266;14.192;2023-08-21T05:42:55;9.10;;;6.20;;
75456;SDS011;64036;48.266;14.192;2023-08-21T05:45:21;8.40;;;6.00;;
75456;SDS011;64036;48.266;14.192;2023-08-21T05:47:46;7.20;;;5.90;;
75456;SDS011;64036;48.266;14.192;2023-08-21T05:50:12;7.50;;;5.70;;
75456;SDS011;64036;48.266;14.192;2023-08-21T05:52:38;7.00;;;5.70;;
75456;SDS011;64036;48.266;14.192;2023-08-21T05:55:04;9.40;;;5.50;;
75456;SDS011;64036;48.266;14.192;2023-08-21T05:57:30;8.40;;;5.50;;
75456;SDS011;64036;48.266;14.192;2023-08-21T05:59:59;6.70;;;5.70;;
75456;SDS011;64036;48.266;14.192;2023-08-21T06:02:25;5.60;;;4.60;;
75456;SDS011;64036;48.266;14.192;2023-08-21T06:04:50;8.80;;;5.00;;
75456;SDS011;64036;48.266;14.192;2023-08-21T06:07:16;7.50;;;5.10;;
75456;SDS011;64036;48.266;14.192;2023-08-21T06:09:42;6.80;;;5.10;;
75456;SDS011;64036;48.266;14.192;2023-08-21T06:12:08;6.60;;;5.10;;
75456;SDS011;64036;48.266;14.192;2023-08-21T06:14:34;7.50;;;4.80;;
75456;SDS011;64036;48.266;14.192;2023-08-21T06:17:02;6.40;;;4.30;;
75456;SDS011;64036;48.266;14.192;2023-08-21T06:19:29;7.30;;;5.20;;
75456;SDS011;64036;48.266;14.192;2023-08-21T06:21:55;5.80;;;4.40;;
75456;SDS011;64036;48.266;14.192;2023-08-21T06:24:22;6.70;;;4.90;;
75456;SDS011;64036;48.266;14.192;2023-08-21T06:26:48;6.10;;;4.50;;
75456;SDS011;64036;48.266;14.192;2023-08-21T06:29:14;5.70;;;4.50;;
75456;SDS011;64036;48.266;14.192;2023-08-21T06:31:39;5.50;;;4.40;;
75456;SDS011;64036;48.266;14.192;2023-08-21T06:34:05;7.20;;;4.50;;
75456;SDS011;64036;48.266;14.192;2023-08-21T06:36:31;6.20;;;4.70;;
75456;SDS011;64036;48.266;14.192;2023-08-21T06:38:57;6.70;;;4.70;;
75456;SDS011;64036;48.266;14.192;2023-08-21T06:41:22;8.00;;;4.50;;
75456;SDS011;64036;48.266;14.192;2023-08-21T06:43:49;6.80;;;4.80;;
75456;SDS011;64036;48.266;14.192;2023-08-21T06:46:15;6.50;;;4.40;;
75456;SDS011;64036;48.266;14.192;2023-08-21T06:48:40;5.90;;;4.20;;
75456;SDS011;64036;48.266;14.192;2023-08-21T06:51:06;5.80;;;4.30;;
75456;SDS011;64036;48.266;14.192;2023-08-21T06:53:32;8.20;;;4.80;;
75456;SDS011;64036;48.266;14.192;2023-08-21T06:55:58;12.70;;;5.00;;
75456;SDS011;64036;48.266;14.192;2023-08-21T06:58:23;7.10;;;5.00;;
75456;SDS011;64036;48.266;14.192;2023-08-21T07:00:49;12.50;;;5.20;;
75456;SDS011;64036;48.266;14.192;2023-08-21T07:03:14;7.30;;;4.50;;
75456;SDS011;64036;48.266;14.192;2023-08-21T07:05:40;9.10;;;4.60;;
75456;SDS011;64036;48.266;14.192;2023-08-21T07:08:05;10.30;;;4.70;;
75456;SDS011;64036;48.266;14.192;2023-08-21T07:10:37;10.10;;;4.70;;
75456;SDS011;64036;48.266;14.192;2023-08-21T07:13:03;8.10;;;4.50;;
75456;SDS011;64036;48.266;14.192;2023-08-21T07:15:29;6.30;;;4.30;;
75456;SDS011;64036;48.266;14.192;2023-08-21T07:17:55;12.40;;;5.00;;
75456;SDS011;64036;48.266;14.192;2023-08-21T07:20:21;10.50;;;4.70;;
75456;SDS011;64036;48.266;14.192;2023-08-21T07:22:47;7.90;;;5.10;;
75456;SDS011;64036;48.266;14.192;2023-08-21T07:25:13;8.50;;;4.90;;
75456;SDS011;64036;48.266;14.192;2023-08-21T07:27:39;10.80;;;6.00;;
75456;SDS011;64036;48.266;14.192;2023-08-21T07:30:06;8.60;;;4.90;;
75456;SDS011;64036;48.266;14.192;2023-08-21T07:32:32;9.20;;;4.70;;
75456;SDS011;64036;48.266;14.192;2023-08-21T07:34:57;6.80;;;4.10;;
75456;SDS011;64036;48.266;14.192;2023-08-21T07:37:23;7.90;;;4.00;;
75456;SDS011;64036;48.266;14.192;2023-08-21T07:39:49;5.90;;;4.00;;
75456;SDS011;64036;48.266;14.192;2023-08-21T07:42:14;6.90;;;3.80;;
75456;SDS011;64036;48.266;14.192;2023-08-21T07:44:40;7.10;;;4.30;;
75456;SDS011;64036;48.266;14.192;2023-08-21T07:47:06;9.00;;;4.10;;
75456;SDS011;64036;48.266;14.192;2023-08-21T07:49:32;9.50;;;3.90;;
75456;SDS011;64036;48.266;14.192;2023-08-21T07:51:58;6.00;;;3.40;;
75456;SDS011;64036;48.266;14.192;2023-08-21T07:54:24;5.70;;;3.30;;
75456;SDS011;64036;48.266;14.192;2023-08-21T07:56:50;4.90;;;3.20;;
75456;SDS011;64036;48.266;14.192;2023-08-21T07:59:16;4.90;;;3.30;;
75456;SDS011;64036;48.266;14.192;2023-08-21T08:01:42;8.00;;;3.10;;
75456;SDS011;64036;48.266;14.192;2023-08-21T08:04:13;6.80;;;3.70;;
75456;SDS011;64036;48.266;14.192;2023-08-21T08:06:39;6.30;;;3.40;;
75456;SDS011;64036;48.266;14.192;2023-08-21T08:09:04;7.70;;;3.90;;
75456;SDS011;64036;48.266;14.192;2023-08-21T08:11:30;7.70;;;4.00;;
75456;SDS011;64036;48.266;14.192;2023-08-21T08:13:56;7.90;;;4.00;;
75456;SDS011;64036;48.266;14.192;2023-08-21T08:16:21;5.90;;;3.70;;
75456;SDS011;64036;48.266;14.192;2023-08-21T08:18:47;5.20;;;3.50;;
75456;SDS011;64036;48.266;14.192;2023-08-21T08:21:13;6.40;;;3.80;;
75456;SDS011;64036;48.266;14.192;2023-08-21T08:23:39;6.30;;;3.80;;
75456;SDS011;64036;48.266;14.192;2023-08-21T08:26:05;10.60;;;4.00;;
75456;SDS011;64036;48.266;14.192;2023-08-21T08:28:30;8.00;;;4.20;;
75456;SDS011;64036;48.266;14.192;2023-08-21T08:30:56;7.60;;;4.30;;
75456;SDS011;64036;48.266;14.192;2023-08-21T08:33:26;8.30;;;4.10;;
75456;SDS011;64036;48.266;14.192;2023-08-21T08:35:55;6.10;;;4.20;;
75456;SDS011;64036;48.266;14.192;2023-08-21T08:38:20;8.90;;;4.20;;
75456;SDS011;64036;48.266;14.192;2023-08-21T08:40:47;6.90;;;4.10;;
75456;SDS011;64036;48.266;14.192;2023-08-21T08:43:13;8.90;;;4.70;;
75456;SDS011;64036;48.266;14.192;2023-08-21T08:45:40;9.30;;;4.40;;
75456;SDS011;64036;48.266;14.192;2023-08-21T08:48:09;9.40;;;4.90;;
75456;SDS011;64036;48.266;14.192;2023-08-21T08:50:37;9.20;;;4.10;;
75456;SDS011;64036;48.266;14.192;2023-08-21T08:53:03;9.50;;;4.50;;
75456;SDS011;64036;48.266;14.192;2023-08-21T08:55:29;8.80;;;4.80;;
75456;SDS011;64036;48.266;14.192;2023-08-21T08:57:55;6.40;;;4.40;;
75456;SDS011;64036;48.266;14.192;2023-08-21T09:00:21;9.80;;;4.30;;
75456;SDS011;64036;48.266;14.192;2023-08-21T09:02:48;6.50;;;3.80;;
75456;SDS011;64036;48.266;14.192;2023-08-21T09:05:13;7.80;;;4.40;;
75456;SDS011;64036;48.266;14.192;2023-08-21T09:07:39;9.00;;;4.40;;
75456;SDS011;64036;48.266;14.192;2023-08-21T09:10:13;9.90;;;4.50;;
75456;SDS011;64036;48.266;14.192;2023-08-21T09:12:40;7.00;;;4.50;;
75456;SDS011;64036;48.266;14.192;2023-08-21T09:15:07;11.40;;;5.00;;
75456;SDS011;64036;48.266;14.192;2023-08-21T09:17:33;7.90;;;5.00;;
75456;SDS011;64036;48.266;14.192;2023-08-21T09:20:06;8.30;;;4.20;;
75456;SDS011;64036;48.266;14.192;2023-08-21T09:22:36;8.40;;;5.10;;
75456;SDS011;64036;48.266;14.192;2023-08-21T09:25:02;7.10;;;4.60;;
75456;SDS011;64036;48.266;14.192;2023-08-21T09:27:39;6.70;;;4.40;;
75456;SDS011;64036;48.266;14.192;2023-08-21T09:30:08;7.80;;;5.10;;
75456;SDS011;64036;48.266;14.192;2023-08-21T09:32:58;7.80;;;4.90;;
75456;SDS011;64036;48.266;14.192;2023-08-21T09:35:26;8.50;;;5.00;;
75456;SDS011;64036;48.266;14.192;2023-08-21T09:37:52;8.40;;;5.30;;
75456;SDS011;64036;48.266;14.192;2023-08-21T09:40:19;8.70;;;5.30;;
75456;SDS011;64036;48.266;14.192;2023-08-21T09:42:51;8.40;;;4.80;;
75456;SDS011;64036;48.266;14.192;2023-08-21T09:45:24;9.90;;;5.40;;
75456;SDS011;64036;48.266;14.192;2023-08-21T09:47:52;13.70;;;5.80;;
75456;SDS011;64036;48.266;14.192;2023-08-21T09:50:18;9.30;;;6.10;;
75456;SDS011;64036;48.266;14.192;2023-08-21T09:52:45;8.50;;;5.30;;
75456;SDS011;64036;48.266;14.192;2023-08-21T09:55:13;8.60;;;5.50;;
75456;SDS011;64036;48.266;14.192;2023-08-21T09:57:40;8.10;;;5.30;;
75456;SDS011;64036;48.266;14.192;2023-08-21T10:00:09;11.50;;;6.60;;
75456;SDS011;64036;48.266;14.192;2023-08-21T10:02:46;9.90;;;5.70;;
75456;SDS011;64036;48.266;14.192;2023-08-21T10:05:18;11.00;;;5.80;;
75456;SDS011;64036;48.266;14.192;2023-08-21T10:10:13;9.40;;;5.60;;
75456;SDS011;64036;48.266;14.192;2023-08-21T10:12:39;9.10;;;5.90;;
75456;SDS011;64036;48.266;14.192;2023-08-21T10:15:07;7.70;;;5.60;;
75456;SDS011;64036;48.266;14.192;2023-08-21T10:17:36;12.90;;;6.30;;
75456;SDS011;64036;48.266;14.192;2023-08-21T10:20:06;9.90;;;5.80;;
75456;SDS011;64036;48.266;14.192;2023-08-21T10:22:44;13.80;;;6.40;;
75456;SDS011;64036;48.266;14.192;2023-08-21T10:25:18;11.70;;;6.20;;
75456;SDS011;64036;48.266;14.192;2023-08-21T10:27:58;10.40;;;6.60;;
75456;SDS011;64036;48.266;14.192;2023-08-21T10:30:29;11.80;;;6.40;;
75456;SDS011;64036;48.266;14.192;2023-08-21T10:32:58;9.20;;;6.00;;
75456;SDS011;64036;48.266;14.192;2023-08-21T10:35:29;12.00;;;6.70;;
75456;SDS011;64036;48.266;14.192;2023-08-21T10:38:12;13.10;;;6.30;;
75456;SDS011;64036;48.266;14.192;2023-08-21T10:41:06;10.80;;;6.70;;
75456;SDS011;64036;48.266;14.192;2023-08-21T10:43:45;10.00;;;6.60;;
75456;SDS011;64036;48.266;14.192;2023-08-21T10:46:12;9.60;;;6.60;;
75456;SDS011;64036;48.266;14.192;2023-08-21T10:48:39;12.00;;;6.80;;
75456;SDS011;64036;48.266;14.192;2023-08-21T10:51:07;8.00;;;6.40;;
75456;SDS011;64036;48.266;14.192;2023-08-21T10:53:34;8.30;;;6.00;;
75456;SDS011;64036;48.266;14.192;2023-08-21T10:56:04;10.30;;;5.80;;
75456;SDS011;64036;48.266;14.192;2023-08-21T10:58:44;11.70;;;6.40;;
75456;SDS011;64036;48.266;14.192;2023-08-21T11:01:16;10.20;;;5.70;;
75456;SDS011;64036;48.266;14.192;2023-08-21T11:03:46;10.10;;;6.30;;
75456;SDS011;64036;48.266;14.192;2023-08-21T11:06:12;9.40;;;6.30;;
75456;SDS011;64036;48.266;14.192;2023-08-21T11:08:38;9.90;;;6.30;;
75456;SDS011;64036;48.266;14.192;2023-08-21T11:11:05;9.20;;;6.30;;
75456;SDS011;64036;48.266;14.192;2023-08-21T11:13:32;10.20;;;6.50;;
75456;SDS011;64036;48.266;14.192;2023-08-21T11:16:02;8.40;;;6.10;;
75456;SDS011;64036;48.266;14.192;2023-08-21T11:18:33;9.60;;;6.30;;
75456;SDS011;64036;48.266;14.192;2023-08-21T11:21:10;14.10;;;6.80;;
75456;SDS011;64036;48.266;14.192;2023-08-21T11:23:41;9.10;;;6.40;;
75456;SDS011;64036;48.266;14.192;2023-08-21T11:26:10;8.40;;;5.90;;
75456;SDS011;64036;48.266;14.192;2023-08-21T11:28:38;8.80;;;6.00;;
75456;SDS011;64036;48.266;14.192;2023-08-21T11:31:05;14.20;;;6.50;;
75456;SDS011;64036;48.266;14.192;2023-08-21T11:33:32;10.00;;;6.70;;
75456;SDS011;64036;48.266;14.192;2023-08-21T11:35:59;11.70;;;6.10;;
75456;SDS011;64036;48.266;14.192;2023-08-21T11:38:26;11.40;;;6.40;;
75456;SDS011;64036;48.266;14.192;2023-08-21T11:43:17;10.50;;;5.60;;
75456;SDS011;64036;48.266;14.192;2023-08-21T11:45:47;7.60;;;4.90;;
75456;SDS011;64036;48.266;14.192;2023-08-21T11:48:13;10.20;;;5.70;;
75456;SDS011;64036;48.266;14.192;2023-08-21T11:50:39;7.40;;;5.60;;
75456;SDS011;64036;48.266;14.192;2023-08-21T11:53:05;9.00;;;5.80;;
75456;SDS011;64036;48.266;14.192;2023-08-21T11:55:34;9.00;;;5.90;;
75456;SDS011;64036;48.266;14.192;2023-08-21T11:58:01;10.20;;;5.90;;
75456;SDS011;64036;48.266;14.192;2023-08-21T12:00:28;10.30;;;5.70;;
75456;SDS011;64036;48.266;14.192;2023-08-21T12:02:56;8.60;;;5.10;;
75456;SDS011;64036;48.266;14.192;2023-08-21T12:05:24;9.40;;;5.20;;
75456;SDS011;64036;48.266;14.192;2023-08-21T12:07:51;7.80;;;5.50;;
75456;SDS011;64036;48.266;14.192;2023-08-21T12:10:25;6.50;;;5.20;;
75456;SDS011;64036;48.266;14.192;2023-08-21T12:12:51;8.30;;;5.10;;
75456;SDS011;64036;48.266;14.192;2023-08-21T12:15:17;7.70;;;4.60;;
75456;SDS011;64036;48.266;14.192;2023-08-21T12:17:43;6.70;;;4.10;;
75456;SDS011;64036;48.266;14.192;2023-08-21T12:20:09;9.10;;;5.50;;
75456;SDS011;64036;48.266;14.192;2023-08-21T12:22:38;7.70;;;5.20;;
75456;SDS011;64036;48.266;14.192;2023-08-21T12:25:05;7.80;;;5.40;;
75456;SDS011;64036;48.266;14.192;2023-08-21T12:27:31;7.50;;;5.60;;
75456;SDS011;64036;48.266;14.192;2023-08-21T12:29:57;8.70;;;5.80;;
75456;SDS011;64036;48.266;14.192;2023-08-21T12:32:22;8.00;;;5.00;;
75456;SDS011;64036;48.266;14.192;2023-08-21T12:34:48;9.60;;;5.00;;
75456;SDS011;64036;48.266;14.192;2023-08-21T12:37:14;6.80;;;4.70;;
75456;SDS011;64036;48.266;14.192;2023-08-21T12:39:39;6.90;;;4.70;;
75456;SDS011;64036;48.266;14.192;2023-08-21T12:42:05;7.80;;;4.50;;
75456;SDS011;64036;48.266;14.192;2023-08-21T12:44:33;8.70;;;5.00;;
75456;SDS011;64036;48.266;14.192;2023-08-21T12:46:59;8.90;;;5.00;;
75456;SDS011;64036;48.266;14.192;2023-08-21T12:49:25;7.30;;;4.90;;
75456;SDS011;64036;48.266;14.192;2023-08-21T12:51:51;8.00;;;4.60;;
75456;SDS011;64036;48.266;14.192;2023-08-21T12:54:17;6.20;;;4.50;;
75456;SDS011;64036;48.266;14.192;2023-08-21T12:56:42;6.10;;;4.30;;
75456;SDS011;64036;48.266;14.192;2023-08-21T12:59:08;8.40;;;4.30;;
75456;SDS011;64036;48.266;14.192;2023-08-21T13:01:34;7.60;;;4.20;;
75456;SDS011;64036;48.266;14.192;2023-08-21T13:04:01;7.20;;;4.30;;
75456;SDS011;64036;48.266;14.192;2023-08-21T13:06:28;7.20;;;4.30;;
75456;SDS011;64036;48.266;14.192;2023-08-21T13:08:54;6.50;;;4.10;;
75456;SDS011;64036;48.266;14.192;2023-08-21T13:11:19;7.30;;;4.20;;
75456;SDS011;64036;48.266;14.192;2023-08-21T13:13:45;7.80;;;4.00;;
75456;SDS011;64036;48.266;14.192;2023-08-21T13:16:11;8.00;;;3.80;;
75456;SDS011;64036;48.266;14.192;2023-08-21T13:18:36;6.50;;;4.00;;
75456;SDS011;64036;48.266;14.192;2023-08-21T13:21:02;7.30;;;4.20;;
75456;SDS011;64036;48.266;14.192;2023-08-21T13:23:29;8.60;;;4.00;;
75456;SDS011;64036;48.266;14.192;2023-08-21T13:25:56;7.60;;;4.00;;
75456;SDS011;64036;48.266;14.192;2023-08-21T13:28:25;11.90;;;4.60;;
75456;SDS011;64036;48.266;14.192;2023-08-21T13:30:51;6.40;;;4.00;;
75456;SDS011;64036;48.266;14.192;2023-08-21T13:33:18;7.40;;;4.30;;
75456;SDS011;64036;48.266;14.192;2023-08-21T13:35:47;7.90;;;3.80;;
75456;SDS011;64036;48.266;14.192;2023-08-21T13:38:13;5.40;;;3.60;;
75456;SDS011;64036;48.266;14.192;2023-08-21T13:40:40;5.20;;;3.80;;
75456;SDS011;64036;48.266;14.192;2023-08-21T13:43:06;5.10;;;3.80;;
75456;SDS011;64036;48.266;14.192;2023-08-21T13:45:32;5.90;;;4.10;;
75456;SDS011;64036;48.266;14.192;2023-08-21T13:47:59;5.50;;;3.70;;
75456;SDS011;64036;48.266;14.192;2023-08-21T13:50:24;7.20;;;3.50;;
75456;SDS011;64036;48.266;14.192;2023-08-21T13:52:50;5.20;;;3.80;;
75456;SDS011;64036;48.266;14.192;2023-08-21T13:55:16;7.00;;;3.90;;
75456;SDS011;64036;48.266;14.192;2023-08-21T13:57:42;7.10;;;3.90;;
75456;SDS011;64036;48.266;14.192;2023-08-21T14:00:09;5.90;;;3.70;;
75456;SDS011;64036;48.266;14.192;2023-08-21T14:02:40;6.60;;;4.00;;
75456;SDS011;64036;48.266;14.192;2023-08-21T14:05:07;6.10;;;3.60;;
75456;SDS011;64036;48.266;14.192;2023-08-21T14:07:34;4.90;;;3.40;;
75456;SDS011;64036;48.266;14.192;2023-08-21T14:10:00;5.00;;;3.30;;
75456;SDS011;64036;48.266;14.192;2023-08-21T14:12:29;5.10;;;3.60;;
75456;SDS011;64036;48.266;14.192;2023-08-21T14:14:55;6.90;;;3.80;;
75456;SDS011;64036;48.266;14.192;2023-08-21T14:17:21;6.00;;;3.20;;
75456;SDS011;64036;48.266;14.192;2023-08-21T14:19:46;6.20;;;3.20;;
75456;SDS011;64036;48.266;14.192;2023-08-21T14:22:12;4.40;;;2.90;;
75456;SDS011;64036;48.266;14.192;2023-08-21T14:24:38;6.20;;;3.40;;
75456;SDS011;64036;48.266;14.192;2023-08-21T14:27:04;5.20;;;3.20;;
75456;SDS011;64036;48.266;14.192;2023-08-21T14:29:29;8.20;;;3.80;;
75456;SDS011;64036;48.266;14.192;2023-08-21T14:31:55;8.00;;;3.40;;
75456;SDS011;64036;48.266;14.192;2023-08-21T14:34:23;5.30;;;3.60;;
75456;SDS011;64036;48.266;14.192;2023-08-21T14:36:48;7.00;;;4.00;;